Time;durP1;ratioP1;P1;durP2;ratioP2;P2;SDS_P1;SDS_P2;PMS_P1;PMS_P2;Temp;Humidity;BMP_temperature;BMP_pressure;BME280_temperature;BME280_humidity;BME280_pressure;Samples;Min_cycle;Max_cycle;Signal;HPM_P1;HPM_P2
2023/01/16 00:02:19;;;;;;;;;;;4.20;99.90;;;;;;5094417;28;19923;-78
2023/01/16 00:04:45;;;;;;;;;;;4.20;99.90;;;;;;5132824;27;19962;-78
2023/01/16 00:07:11;;;;;;;;;;;4.20;99.90;;;;;;5093816;27;19927;-78
2023/01/16 00:09:36;;;;;;;;;;;4.20;99.90;;;;;;5095503;27;19927;-78
2023/01/16 00:12:02;;;;;;;;;;;4.30;99.90;;;;;;5105328;27;19932;-78
2023/01/16 00:14:28;;;;;;;;;;;4.30;99.90;;;;;;5116055;27;19924;-78
2023/01/16 00:16:54;;;;;;;;;;;4.30;99.90;;;;;;5110344;27;19938;-78
2023/01/16 00:19:20;;;;;;;;;;;4.30;99.90;;;;;;5110887;27;19966;-77
2023/01/16 00:21:47;;;;;;;;;;;4.30;99.90;;;;;;5112468;27;19955;-78
2023/01/16 00:24:13;;;;;;;;;;;4.40;99.90;;;;;;5111275;27;19923;-78
2023/01/16 00:26:38;;;;;;;;;;;4.40;99.90;;;;;;5115613;28;19923;-78
2023/01/16 00:29:04;;;;;;;;;;;4.40;99.90;;;;;;5108477;27;19931;-78
2023/01/16 00:31:30;;;;;;;;;;;4.40;99.90;;;;;;5097598;27;19957;-78
2023/01/16 00:33:55;;;;;;;;;;;4.30;99.90;;;;;;5116295;28;19953;-78
2023/01/16 00:36:21;;;;;;;;;;;4.30;99.90;;;;;;5116186;28;19932;-78
2023/01/16 00:38:46;;;;;;;;;;;4.30;99.90;;;;;;5111191;28;19955;-78
2023/01/16 00:41:12;;;;;;;;;;;4.30;99.90;;;;;;5136273;27;19931;-78
2023/01/16 00:43:37;;;;;;;;;;;4.20;99.90;;;;;;5117402;28;19924;-78
2023/01/16 00:46:03;;;;;;;;;;;4.20;99.90;;;;;;5111190;28;19930;-78
2023/01/16 00:48:29;;;;;;;;;;;4.10;99.90;;;;;;5113858;28;19970;-78
2023/01/16 00:50:54;;;;;;;;;;;4.10;99.90;;;;;;5106014;28;19924;-77
2023/01/16 00:53:20;;;;;;;;;;;4.10;99.90;;;;;;5115158;28;19945;-78
2023/01/16 00:55:46;;;;;;;;;;;4.10;99.90;;;;;;5110491;28;19931;-79
2023/01/16 00:58:12;;;;;;;;;;;4.00;99.90;;;;;;5093562;28;19935;-80
2023/01/16 01:00:37;;;;;;;;;;;4.00;99.90;;;;;;5090892;28;19987;-79
2023/01/16 01:03:04;;;;;;;;;;;3.90;99.90;;;;;;5093088;28;19959;-80
2023/01/16 01:05:30;;;;;;;;;;;3.90;99.90;;;;;;5110851;28;19924;-80
2023/01/16 01:07:55;;;;;;;;;;;4.00;99.90;;;;;;5106747;28;19938;-79
2023/01/16 01:10:21;;;;;;;;;;;4.00;99.90;;;;;;5109388;28;19924;-80
2023/01/16 01:12:46;;;;;;;;;;;4.00;99.90;;;;;;5112526;28;19962;-79
2023/01/16 01:15:12;;;;;;;;;;;4.00;99.90;;;;;;5090153;28;19924;-79
2023/01/16 01:17:37;;;;;;;;;;;4.00;99.90;;;;;;5113916;28;19955;-79
2023/01/16 01:20:03;;;;;;;;;;;4.00;99.90;;;;;;5113346;28;19927;-80
2023/01/16 01:22:29;;;;;;;;;;;4.00;99.90;;;;;;5106366;28;19935;-79
2023/01/16 01:24:55;;;;;;;;;;;4.00;99.90;;;;;;5113561;28;19995;-80
2023/01/16 01:27:20;;;;;;;;;;;4.00;99.90;;;;;;5096716;28;19938;-79
2023/01/16 01:29:46;;;;;;;;;;;3.90;99.90;;;;;;5098781;28;19924;-79
2023/01/16 01:32:11;;;;;;;;;;;4.00;99.90;;;;;;5114641;27;19951;-79
2023/01/16 01:34:37;;;;;;;;;;;4.00;99.90;;;;;;5092258;28;19924;-80
2023/01/16 01:37:06;;;;;;;;;;;4.10;99.90;;;;;;5113174;28;19923;-79
2023/01/16 01:39:32;;;;;;;;;;;4.10;99.90;;;;;;5093500;28;20461;-80
2023/01/16 01:44:48;;;;;;;;;;;4.20;99.90;;;;;;5111634;28;19984;-80
2023/01/16 01:47:14;;;;;;;;;;;4.30;99.90;;;;;;5114268;28;19924;-79
2023/01/16 01:49:40;;;;;;;;;;;4.30;99.90;;;;;;5109587;28;19987;-80
2023/01/16 01:52:06;;;;;;;;;;;4.40;99.90;;;;;;5110656;27;19985;-80
2023/01/16 01:54:35;;;;;;;;;;;4.50;99.90;;;;;;5134741;27;19930;-79
2023/01/16 01:57:04;;;;;;;;;;;4.50;99.90;;;;;;5096207;27;19928;-80
2023/01/16 01:59:33;;;;;;;;;;;4.50;99.90;;;;;;5108261;27;19943;-80
2023/01/16 02:01:59;;;;;;;;;;;4.50;99.90;;;;;;5135083;27;19938;-80
2023/01/16 02:04:28;;;;;;;;;;;4.60;99.90;;;;;;5102517;27;20347;-79
2023/01/16 02:06:55;;;;;;;;;;;4.60;99.90;;;;;;5102944;27;19935;-79
2023/01/16 02:09:21;;;;;;;;;;;4.60;99.90;;;;;;5138124;27;19938;-79
2023/01/16 02:12:07;;;;;;;;;;;4.60;99.90;;;;;;5130283;27;19924;-80
2023/01/16 02:14:34;;;;;;;;;;;4.70;99.90;;;;;;5116088;27;19923;-79
2023/01/16 02:20:09;;;;;;;;;;;4.70;99.90;;;;;;5109027;27;19930;-80
2023/01/16 02:22:53;;;;;;;;;;;4.70;99.90;;;;;;5112341;27;19934;-79
2023/01/16 02:25:27;;;;;;;;;;;4.70;99.90;;;;;;5131252;27;20763;-79
2023/01/16 02:28:14;;;;;;;;;;;4.70;99.90;;;;;;5097862;27;19991;-80
2023/01/16 02:30:58;;;;;;;;;;;4.70;99.90;;;;;;5119000;27;19924;-80
2023/01/16 02:33:30;;;;;;;;;;;4.70;99.90;;;;;;5112181;27;19923;-80
2023/01/16 02:35:55;;;;;;;;;;;4.70;99.90;;;;;;5117204;27;19962;-79
2023/01/16 02:38:40;;;;;;;;;;;4.70;99.90;;;;;;5113560;27;19928;-79
2023/01/16 02:41:24;;;;;;;;;;;4.70;99.90;;;;;;5110169;27;19939;-80
2023/01/16 02:43:56;;;;;;;;;;;4.60;99.90;;;;;;5113181;27;19927;-79
2023/01/16 02:46:25;;;;;;;;;;;4.60;99.90;;;;;;5097530;27;19927;-79
2023/01/16 02:48:51;;;;;;;;;;;4.60;99.90;;;;;;5114342;27;19935;-79
2023/01/16 02:51:19;;;;;;;;;;;4.60;99.90;;;;;;5111078;27;20485;-79
2023/01/16 02:53:51;;;;;;;;;;;4.60;99.90;;;;;;5113153;27;19930;-79
2023/01/16 02:56:19;;;;;;;;;;;4.50;99.90;;;;;;5111418;27;19934;-80
2023/01/16 02:58:46;;;;;;;;;;;4.50;99.90;;;;;;5111496;27;19927;-79
2023/01/16 03:01:13;;;;;;;;;;;4.50;99.90;;;;;;5110852;27;19986;-79
2023/01/16 03:03:38;;;;;;;;;;;4.50;99.90;;;;;;5112718;27;19965;-80
2023/01/16 03:06:19;;;;;;;;;;;4.50;99.90;;;;;;5116848;27;19924;-80
2023/01/16 03:09:00;;;;;;;;;;;4.60;99.90;;;;;;5112078;27;19992;-79
2023/01/16 03:11:27;;;;;;;;;;;4.60;99.90;;;;;;5116894;27;19935;-79
2023/01/16 03:14:12;;;;;;;;;;;4.50;99.90;;;;;;5110380;27;19934;-80
2023/01/16 03:16:48;;;;;;;;;;;4.60;99.90;;;;;;5110277;27;19942;-79
2023/01/16 03:19:23;;;;;;;;;;;4.50;99.90;;;;;;5112679;27;19931;-80
2023/01/16 03:21:48;;;;;;;;;;;4.50;99.90;;;;;;5112248;27;19930;-79
2023/01/16 03:24:33;;;;;;;;;;;4.50;99.90;;;;;;5111848;27;19931;-80
2023/01/16 03:27:02;;;;;;;;;;;4.50;99.90;;;;;;5097766;27;19928;-78
2023/01/16 03:29:31;;;;;;;;;;;4.50;99.90;;;;;;5112399;27;19931;-79
2023/01/16 03:32:00;;;;;;;;;;;4.50;99.90;;;;;;5115095;27;20539;-80
2023/01/16 03:34:39;;;;;;;;;;;4.50;99.90;;;;;;5111180;27;19939;-79
2023/01/16 03:37:13;;;;;;;;;;;4.50;99.90;;;;;;5113643;27;19970;-80
2023/01/16 03:39:41;;;;;;;;;;;4.50;99.90;;;;;;5113691;27;19966;-79
2023/01/16 03:42:19;;;;;;;;;;;4.50;99.90;;;;;;5108766;27;20008;-79
2023/01/16 03:44:49;;;;;;;;;;;4.50;99.90;;;;;;5113664;27;19946;-79
2023/01/16 03:47:20;;;;;;;;;;;4.50;99.90;;;;;;5117526;27;19931;-79
2023/01/16 03:49:47;;;;;;;;;;;4.50;99.90;;;;;;5111920;27;19927;-79
2023/01/16 03:52:15;;;;;;;;;;;4.50;99.90;;;;;;5112918;27;19928;-79
2023/01/16 03:54:40;;;;;;;;;;;4.50;99.90;;;;;;5096716;27;19934;-79
2023/01/16 03:57:08;;;;;;;;;;;4.50;99.90;;;;;;5117034;27;19923;-79
2023/01/16 03:59:35;;;;;;;;;;;4.50;99.90;;;;;;5110264;27;19959;-79
2023/01/16 04:02:03;;;;;;;;;;;4.60;99.90;;;;;;5110315;27;19927;-79
2023/01/16 04:04:37;;;;;;;;;;;4.50;99.90;;;;;;5130658;27;19930;-79
2023/01/16 04:07:06;;;;;;;;;;;4.50;99.90;;;;;;5110671;27;19962;-79
2023/01/16 04:09:52;;;;;;;;;;;4.50;99.90;;;;;;5110813;27;19939;-80
2023/01/16 04:12:20;;;;;;;;;;;4.40;99.90;;;;;;5095619;27;19987;-79
2023/01/16 04:14:48;;;;;;;;;;;4.40;99.90;;;;;;5115913;27;19935;-79
2023/01/16 04:17:14;;;;;;;;;;;4.40;99.90;;;;;;5133098;27;19927;-79
2023/01/16 04:19:40;;;;;;;;;;;4.40;99.90;;;;;;5113574;27;19934;-79
2023/01/16 04:22:18;;;;;;;;;;;4.40;99.90;;;;;;5109250;28;19983;-79
2023/01/16 04:24:44;;;;;;;;;;;4.40;99.90;;;;;;5126504;27;19960;-80
2023/01/16 04:27:09;;;;;;;;;;;4.40;99.90;;;;;;5110774;28;19923;-79
2023/01/16 04:29:35;;;;;;;;;;;4.40;99.90;;;;;;5097694;27;20074;-79
2023/01/16 04:32:00;;;;;;;;;;;4.40;99.90;;;;;;5104456;28;20328;-79
2023/01/16 04:34:26;;;;;;;;;;;4.40;99.90;;;;;;5112551;28;20015;-80
2023/01/16 04:36:51;;;;;;;;;;;4.40;99.90;;;;;;5113211;28;19928;-80
2023/01/16 04:39:17;;;;;;;;;;;4.40;99.90;;;;;;5115003;28;20011;-80
2023/01/16 04:41:46;;;;;;;;;;;4.50;99.90;;;;;;5112264;28;19924;-80
2023/01/16 04:44:12;;;;;;;;;;;4.50;99.90;;;;;;5111813;28;19927;-79
2023/01/16 04:46:38;;;;;;;;;;;4.40;99.90;;;;;;5110331;28;19939;-80
2023/01/16 04:49:04;;;;;;;;;;;4.40;99.90;;;;;;5098432;28;19927;-80
2023/01/16 04:51:30;;;;;;;;;;;4.30;99.90;;;;;;5112345;28;19934;-80
2023/01/16 04:53:56;;;;;;;;;;;4.30;99.90;;;;;;5112401;28;21166;-80
2023/01/16 04:56:22;;;;;;;;;;;4.20;99.90;;;;;;5097275;28;19974;-80
2023/01/16 04:58:49;;;;;;;;;;;4.00;99.90;;;;;;5112282;28;19928;-79
2023/01/16 05:01:16;;;;;;;;;;;4.00;99.90;;;;;;5108859;28;19928;-80
2023/01/16 05:03:42;;;;;;;;;;;3.90;99.90;;;;;;5114061;28;19924;-80
2023/01/16 05:06:08;;;;;;;;;;;3.80;99.90;;;;;;5098999;28;19949;-80
2023/01/16 05:08:33;;;;;;;;;;;3.80;99.90;;;;;;5112230;28;19927;-80
2023/01/16 05:11:00;;;;;;;;;;;3.80;99.90;;;;;;5115859;28;20438;-80
2023/01/16 05:13:27;;;;;;;;;;;3.70;99.90;;;;;;5109196;28;19930;-80
2023/01/16 05:15:53;;;;;;;;;;;3.70;99.90;;;;;;5114937;28;19924;-79
2023/01/16 05:18:18;;;;;;;;;;;3.60;99.90;;;;;;5109117;28;19942;-80
2023/01/16 05:20:44;;;;;;;;;;;3.60;99.90;;;;;;5109895;28;19924;-79
2023/01/16 05:23:10;;;;;;;;;;;3.50;99.90;;;;;;5106895;28;19927;-80
2023/01/16 05:25:36;;;;;;;;;;;3.50;99.90;;;;;;5107602;28;19923;-80
2023/01/16 05:28:02;;;;;;;;;;;3.50;99.90;;;;;;5119198;27;20023;-79
2023/01/16 05:30:28;;;;;;;;;;;3.50;99.90;;;;;;5097872;27;19954;-80
2023/01/16 05:32:53;;;;;;;;;;;3.60;99.90;;;;;;5114582;27;20424;-80
2023/01/16 05:35:22;;;;;;;;;;;3.60;99.90;;;;;;5115432;27;19981;-80
2023/01/16 05:37:48;;;;;;;;;;;3.70;99.90;;;;;;5107607;27;19934;-79
2023/01/16 05:40:13;;;;;;;;;;;3.80;99.90;;;;;;5092227;27;19923;-80
2023/01/16 05:42:42;;;;;;;;;;;3.80;99.90;;;;;;5117135;27;19942;-79
2023/01/16 05:45:07;;;;;;;;;;;3.80;99.90;;;;;;5115491;27;20386;-80
2023/01/16 05:47:33;;;;;;;;;;;3.80;99.90;;;;;;5100529;27;19934;-80
2023/01/16 05:49:58;;;;;;;;;;;3.80;99.90;;;;;;5118935;27;19930;-80
2023/01/16 05:52:25;;;;;;;;;;;3.90;99.90;;;;;;5113330;27;19927;-79
2023/01/16 05:54:51;;;;;;;;;;;3.90;99.90;;;;;;5113405;27;19931;-79
2023/01/16 05:57:17;;;;;;;;;;;3.90;99.90;;;;;;5116656;27;20299;-79
2023/01/16 05:59:45;;;;;;;;;;;3.90;99.90;;;;;;5120166;27;20338;-78
2023/01/16 06:02:11;;;;;;;;;;;3.80;99.90;;;;;;5107652;28;20373;-79
2023/01/16 06:04:37;;;;;;;;;;;3.80;99.90;;;;;;5092739;27;19935;-80
2023/01/16 06:07:02;;;;;;;;;;;3.80;99.90;;;;;;5111994;27;19931;-79
2023/01/16 06:09:28;;;;;;;;;;;3.80;99.90;;;;;;5117663;27;19924;-79
2023/01/16 06:11:53;;;;;;;;;;;3.70;99.90;;;;;;5094148;27;19934;-79
2023/01/16 06:14:19;;;;;;;;;;;3.80;99.90;;;;;;5118652;27;19927;-80
2023/01/16 06:16:44;;;;;;;;;;;3.80;99.90;;;;;;5118141;27;19927;-79
2023/01/16 06:19:10;;;;;;;;;;;3.80;99.90;;;;;;5117782;27;20022;-79
2023/01/16 06:21:36;;;;;;;;;;;3.90;99.90;;;;;;5137161;27;20288;-79
2023/01/16 06:24:01;;;;;;;;;;;3.90;99.90;;;;;;5115518;27;19932;-79
2023/01/16 06:26:27;;;;;;;;;;;3.90;99.90;;;;;;5116574;27;19923;-79
2023/01/16 06:28:54;;;;;;;;;;;3.90;99.90;;;;;;5106643;28;19924;-79
2023/01/16 06:31:19;;;;;;;;;;;3.90;99.90;;;;;;5095406;28;19924;-79
2023/01/16 06:33:45;;;;;;;;;;;3.90;99.90;;;;;;5090273;28;20260;-80
2023/01/16 06:36:10;;;;;;;;;;;3.90;99.90;;;;;;5076956;28;19981;-80
2023/01/16 06:38:36;;;;;;;;;;;3.80;99.90;;;;;;5077494;28;19933;-79
2023/01/16 06:41:01;;;;;;;;;;;3.80;99.90;;;;;;5072077;28;19936;-80
2023/01/16 06:43:28;;;;;;;;;;;3.80;99.90;;;;;;5099169;28;19928;-79
2023/01/16 06:45:54;;;;;;;;;;;3.80;99.90;;;;;;5100597;28;20358;-79
2023/01/16 06:48:20;;;;;;;;;;;3.70;99.90;;;;;;5098784;28;19924;-79
2023/01/16 06:50:46;;;;;;;;;;;3.70;99.90;;;;;;5098239;28;20684;-80
2023/01/16 06:53:11;;;;;;;;;;;3.80;99.90;;;;;;5083126;28;19999;-79
2023/01/16 06:55:38;;;;;;;;;;;3.70;99.90;;;;;;5093016;28;19983;-80
2023/01/16 06:58:04;;;;;;;;;;;3.70;99.90;;;;;;5091563;28;19924;-79
2023/01/16 07:00:29;;;;;;;;;;;3.70;99.90;;;;;;5086891;28;19978;-80
2023/01/16 07:02:56;;;;;;;;;;;3.70;99.90;;;;;;5096944;28;19924;-79
2023/01/16 07:05:22;;;;;;;;;;;3.70;99.90;;;;;;5097005;28;19923;-79
2023/01/16 07:07:48;;;;;;;;;;;3.70;99.90;;;;;;5086782;28;19928;-79
2023/01/16 07:10:13;;;;;;;;;;;3.70;99.90;;;;;;5082391;28;19924;-80
2023/01/16 07:12:39;;;;;;;;;;;3.70;99.90;;;;;;5081098;28;19992;-80
2023/01/16 07:23:28;;;;;;;;;;;3.70;99.90;;;;;;5096329;28;19924;-80
2023/01/16 07:25:55;;;;;;;;;;;3.70;99.90;;;;;;5097249;28;19931;-80
2023/01/16 07:28:20;;;;;;;;;;;3.80;99.90;;;;;;5098129;28;19928;-80
2023/01/16 07:30:47;;;;;;;;;;;3.70;99.90;;;;;;5117405;28;19924;-80
2023/01/16 07:33:12;;;;;;;;;;;3.80;99.90;;;;;;5115407;28;19923;-80
2023/01/16 07:35:38;;;;;;;;;;;3.80;99.90;;;;;;5119363;28;19969;-79
2023/01/16 07:38:04;;;;;;;;;;;3.80;99.90;;;;;;5100860;28;19934;-80
2023/01/16 07:40:29;;;;;;;;;;;3.80;99.90;;;;;;5102024;28;19924;-80
2023/01/16 07:42:55;;;;;;;;;;;3.80;99.90;;;;;;5100399;28;19923;-80
2023/01/16 07:45:21;;;;;;;;;;;3.80;99.90;;;;;;5118411;28;19971;-80
2023/01/16 07:47:47;;;;;;;;;;;3.80;99.90;;;;;;5105420;28;19936;-80
2023/01/16 07:50:12;;;;;;;;;;;3.80;99.90;;;;;;5120255;27;20616;-80
2023/01/16 07:52:38;;;;;;;;;;;3.90;99.90;;;;;;5130421;27;19939;-80
2023/01/16 07:55:04;;;;;;;;;;;3.90;99.90;;;;;;5112178;28;19993;-80
2023/01/16 07:57:29;;;;;;;;;;;3.90;99.90;;;;;;5108375;27;19954;-80
2023/01/16 07:59:55;;;;;;;;;;;3.90;99.90;;;;;;5125713;27;19980;-80
2023/01/16 08:02:20;;;;;;;;;;;3.90;99.90;;;;;;5118230;28;20402;-79
2023/01/16 08:04:46;;;;;;;;;;;4.00;99.90;;;;;;5117486;28;19924;-80
2023/01/16 08:07:11;;;;;;;;;;;4.00;99.90;;;;;;5116984;28;19927;-80
2023/01/16 08:09:37;;;;;;;;;;;4.00;99.90;;;;;;5117636;28;19923;-79
2023/01/16 08:12:03;;;;;;;;;;;4.10;99.90;;;;;;5118806;28;19924;-80
2023/01/16 08:14:28;;;;;;;;;;;4.00;99.90;;;;;;5096525;28;19924;-80
2023/01/16 08:16:54;;;;;;;;;;;4.10;99.90;;;;;;5109769;28;19924;-79
2023/01/16 08:19:19;;;;;;;;;;;4.10;99.90;;;;;;5109514;28;19927;-80
2023/01/16 08:21:45;;;;;;;;;;;4.20;99.90;;;;;;5117799;28;19923;-80
2023/01/16 08:24:12;;;;;;;;;;;4.10;99.90;;;;;;5117635;28;19986;-80
2023/01/16 08:26:38;;;;;;;;;;;4.20;99.90;;;;;;5108266;28;19931;-80
2023/01/16 08:29:04;;;;;;;;;;;4.20;99.90;;;;;;5097623;27;19979;-79
2023/01/16 08:31:30;;;;;;;;;;;4.20;99.90;;;;;;5122277;27;20361;-79
2023/01/16 08:33:55;;;;;;;;;;;4.20;99.90;;;;;;5120838;27;20306;-80
2023/01/16 08:36:21;;;;;;;;;;;4.20;99.90;;;;;;5110858;28;19932;-80
2023/01/16 08:38:47;;;;;;;;;;;4.20;99.90;;;;;;5121109;28;20026;-79
2023/01/16 08:52:11;;;;;;;;;;;4.20;99.90;;;;;;5119780;28;19949;-79
2023/01/16 08:54:37;;;;;;;;;;;4.20;99.90;;;;;;5102953;28;19924;-78
2023/01/16 08:57:02;;;;;;;;;;;4.20;99.90;;;;;;5118040;28;19928;-79
2023/01/16 08:59:33;;;;;;;;;;;4.20;99.90;;;;;;5138151;27;19934;-79
2023/01/16 09:01:59;;;;;;;;;;;4.30;99.90;;;;;;5125133;27;20071;-79
2023/01/16 09:04:25;;;;;;;;;;;4.20;99.90;;;;;;5143570;27;20345;-79
2023/01/16 09:06:53;;;;;;;;;;;4.20;99.90;;;;;;5124532;27;19956;-79
2023/01/16 09:09:19;;;;;;;;;;;4.20;99.90;;;;;;5120819;27;19927;-79
2023/01/16 09:14:29;;;;;;;;;;;4.20;99.90;;;;;;5128386;27;19923;-79
2023/01/16 09:16:54;;;;;;;;;;;4.20;99.90;;;;;;5124364;27;20296;-79
2023/01/16 09:19:20;;;;;;;;;;;4.20;99.90;;;;;;5115877;27;20018;-79
2023/01/16 09:21:46;;;;;;;;;;;4.20;99.90;;;;;;5124121;27;19959;-79
2023/01/16 09:24:11;;;;;;;;;;;4.20;99.90;;;;;;5142286;27;19978;-79
2023/01/16 09:26:37;;;;;;;;;;;4.20;99.90;;;;;;5124376;27;19972;-79
2023/01/16 09:29:02;;;;;;;;;;;4.20;99.90;;;;;;5123393;27;19971;-79
2023/01/16 09:31:28;;;;;;;;;;;4.20;99.90;;;;;;5089204;28;19930;-79
2023/01/16 09:33:54;;;;;;;;;;;4.30;99.90;;;;;;5122151;27;19967;-79
2023/01/16 09:36:20;;;;;;;;;;;4.30;99.90;;;;;;5124575;27;19924;-79
2023/01/16 09:38:46;;;;;;;;;;;4.30;99.90;;;;;;5124166;27;19927;-79
2023/01/16 09:43:35;;;;;;;;;;;4.30;99.90;;;;;;5124575;27;19927;-79
2023/01/16 09:44:04;;;;;;;;;;;4.30;99.90;;;;;;5123953;27;19927;-79
2023/01/16 09:46:32;;;;;;;;;;;4.30;99.90;;;;;;5123100;27;20278;-79
2023/01/16 09:49:16;;;;;;;;;;;4.30;99.90;;;;;;5128465;27;19949;-79
2023/01/16 09:58:34;;;;;;;;;;;4.30;99.90;;;;;;5137901;27;20357;-80
2023/01/16 10:00:04;;;;;;;;;;;4.30;99.90;;;;;;5122932;27;19974;-80
2023/01/16 10:02:33;;;;;;;;;;;4.20;99.90;;;;;;5109471;27;20538;-79
2023/01/16 10:05:02;;;;;;;;;;;4.30;99.90;;;;;;5122973;27;19927;-80
2023/01/16 10:07:34;;;;;;;;;;;4.20;99.90;;;;;;5112668;27;19927;-80
2023/01/16 10:10:03;;;;;;;;;;;4.20;99.90;;;;;;5123928;27;20285;-80
2023/01/16 10:12:32;;;;;;;;;;;4.20;99.90;;;;;;5122584;27;19923;-80
2023/01/16 10:15:16;;;;;;;;;;;4.10;99.90;;;;;;5124324;27;20336;-79
2023/01/16 10:17:42;;;;;;;;;;;4.00;99.90;;;;;;5141945;27;20373;-80
2023/01/16 10:20:26;;;;;;;;;;;4.00;99.90;;;;;;5140856;27;20056;-79
2023/01/16 10:23:06;;;;;;;;;;;4.00;99.90;;;;;;5124103;27;19996;-80
2023/01/16 10:25:44;;;;;;;;;;;4.00;99.90;;;;;;5122998;27;19931;-80
2023/01/16 10:28:12;;;;;;;;;;;4.00;99.90;;;;;;5128507;27;19924;-80
2023/01/16 10:30:58;;;;;;;;;;;3.90;99.90;;;;;;5140734;27;20401;-79
2023/01/16 10:33:26;;;;;;;;;;;3.90;99.90;;;;;;5110426;27;19923;-79
2023/01/16 10:35:52;;;;;;;;;;;3.90;99.90;;;;;;5123787;27;20388;-79
2023/01/16 10:38:46;;;;;;;;;;;3.80;99.90;;;;;;5141474;27;19979;-79
2023/01/16 10:49:33;;;;;;;;;;;3.70;99.90;;;;;;5088059;28;20018;-79
2023/01/16 10:52:01;;;;;;;;;;;3.80;99.90;;;;;;5103448;27;19924;-79
2023/01/16 10:54:27;;;;;;;;;;;3.80;99.90;;;;;;5115959;28;19931;-78
2023/01/16 10:56:52;;;;;;;;;;;3.80;99.90;;;;;;5136650;27;19923;-79
2023/01/16 10:59:18;;;;;;;;;;;3.80;99.90;;;;;;5122535;27;19923;-79
2023/01/16 11:01:45;;;;;;;;;;;3.80;99.90;;;;;;5141990;27;20014;-79
2023/01/16 11:04:11;;;;;;;;;;;3.80;99.90;;;;;;5121633;27;20350;-79
2023/01/16 11:06:40;;;;;;;;;;;3.90;99.90;;;;;;5115065;27;19923;-79
2023/01/16 11:09:16;;;;;;;;;;;3.90;99.90;;;;;;5125493;27;19934;-79
2023/01/16 11:20:06;;;;;;;;;;;3.90;99.90;;;;;;5140939;27;20615;-79
2023/01/16 11:22:35;;;;;;;;;;;4.00;99.90;;;;;;5118796;27;19974;-79
2023/01/16 11:25:02;;;;;;;;;;;3.90;99.90;;;;;;5122008;27;19934;-79
2023/01/16 11:27:31;;;;;;;;;;;4.00;99.90;;;;;;5108022;27;19927;-79
2023/01/16 11:29:57;;;;;;;;;;;4.00;99.90;;;;;;5101662;28;19943;-79
2023/01/16 11:32:24;;;;;;;;;;;4.00;99.90;;;;;;5114434;27;19923;-79
2023/01/16 11:34:53;;;;;;;;;;;4.10;99.90;;;;;;5091628;27;19923;-79
2023/01/16 11:37:19;;;;;;;;;;;4.10;99.90;;;;;;5121813;27;19938;-79
2023/01/16 11:39:52;;;;;;;;;;;4.10;99.90;;;;;;5122633;27;19924;-79
2023/01/16 11:48:25;;;;;;;;;;;4.20;99.90;;;;;;5114943;27;19952;-79
2023/01/16 11:50:51;;;;;;;;;;;4.30;99.90;;;;;;5121799;27;19923;-79
2023/01/16 11:53:17;;;;;;;;;;;4.20;99.90;;;;;;5120967;27;19952;-79
2023/01/16 11:56:10;;;;;;;;;;;4.30;99.90;;;;;;5121296;27;19927;-80
2023/01/16 11:58:42;;;;;;;;;;;4.30;99.90;;;;;;5112825;27;19924;-80
2023/01/16 12:01:11;;;;;;;;;;;4.30;99.90;;;;;;5122391;27;19923;-80
2023/01/16 12:03:40;;;;;;;;;;;4.30;99.90;;;;;;5106187;27;19930;-79
2023/01/16 12:06:24;;;;;;;;;;;4.40;99.90;;;;;;5118881;27;19952;-80
2023/01/16 12:09:24;;;;;;;;;;;4.40;99.90;;;;;;5121034;27;19927;-80
2023/01/16 12:11:50;;;;;;;;;;;4.40;99.90;;;;;;5085139;28;20369;-79
2023/01/16 12:14:20;;;;;;;;;;;4.40;99.90;;;;;;5119967;27;19928;-80
2023/01/16 12:16:48;;;;;;;;;;;4.50;99.90;;;;;;5121016;27;20524;-79
2023/01/16 12:19:33;;;;;;;;;;;4.50;99.90;;;;;;5138952;27;20022;-79
2023/01/16 12:22:01;;;;;;;;;;;4.50;99.90;;;;;;5121169;27;19927;-79
2023/01/16 12:24:38;;;;;;;;;;;4.50;99.90;;;;;;5116190;28;19924;-79
2023/01/16 12:27:13;;;;;;;;;;;4.50;99.90;;;;;;5113578;27;19923;-79
2023/01/16 12:29:57;;;;;;;;;;;4.60;99.90;;;;;;5102037;27;20442;-79
2023/01/16 12:32:23;;;;;;;;;;;4.60;99.90;;;;;;5120830;28;19963;-80
2023/01/16 12:35:09;;;;;;;;;;;4.60;99.90;;;;;;5103514;28;19923;-80
2023/01/16 12:37:38;;;;;;;;;;;4.60;99.90;;;;;;5120670;28;20465;-79
2023/01/16 12:40:04;;;;;;;;;;;4.60;99.90;;;;;;5119305;28;19923;-80
2023/01/16 12:45:22;;;;;;;;;;;4.60;99.90;;;;;;5121121;28;20536;-80
2023/01/16 12:47:47;;;;;;;;;;;4.70;99.90;;;;;;5120994;28;20340;-80
2023/01/16 12:50:16;;;;;;;;;;;4.60;99.90;;;;;;5131720;28;20453;-79
2023/01/16 12:52:44;;;;;;;;;;;4.70;99.90;;;;;;5121757;28;19927;-79
2023/01/16 12:55:29;;;;;;;;;;;4.70;99.90;;;;;;5120693;28;19927;-79
2023/01/16 12:58:04;;;;;;;;;;;4.70;99.90;;;;;;5120954;28;19934;-79
2023/01/16 13:00:36;;;;;;;;;;;4.70;99.90;;;;;;5116940;28;19966;-79
2023/01/16 13:03:10;;;;;;;;;;;4.70;99.90;;;;;;5103625;28;19991;-79
2023/01/16 13:05:36;;;;;;;;;;;4.70;99.90;;;;;;5136122;28;19923;-79
2023/01/16 13:08:37;;;;;;;;;;;4.70;99.90;;;;;;5100195;28;20296;-80
2023/01/16 13:13:59;;;;;;;;;;;4.80;99.90;;;;;;5119554;28;19927;-79
2023/01/16 13:16:43;;;;;;;;;;;4.80;99.90;;;;;;5120425;28;19927;-80
2023/01/16 13:19:12;;;;;;;;;;;4.80;99.90;;;;;;5121046;28;19931;-80
2023/01/16 13:21:43;;;;;;;;;;;4.80;99.90;;;;;;5138262;28;19927;-80
2023/01/16 13:24:12;;;;;;;;;;;4.80;99.90;;;;;;5120632;28;19930;-80
2023/01/16 13:26:39;;;;;;;;;;;4.80;99.90;;;;;;5120651;28;19983;-79
2023/01/16 13:29:04;;;;;;;;;;;4.90;99.90;;;;;;5102565;28;19924;-79
2023/01/16 13:31:32;;;;;;;;;;;4.90;99.90;;;;;;5099598;28;19923;-79
2023/01/16 13:34:11;;;;;;;;;;;4.90;99.90;;;;;;5096250;28;19924;-79
2023/01/16 13:36:36;;;;;;;;;;;4.80;99.90;;;;;;5107404;28;19928;-80
2023/01/16 13:39:02;;;;;;;;;;;4.90;99.90;;;;;;5120807;28;19930;-80
2023/01/16 13:41:35;;;;;;;;;;;4.80;99.90;;;;;;5102690;28;20030;-79
2023/01/16 13:46:51;;;;;;;;;;;4.90;99.90;;;;;;5107571;27;19985;-79
2023/01/16 13:49:21;;;;;;;;;;;4.90;99.90;;;;;;5124289;27;20004;-80
2023/01/16 13:51:48;;;;;;;;;;;4.90;99.90;;;;;;5109754;27;20335;-80
2023/01/16 13:54:16;;;;;;;;;;;4.90;99.90;;;;;;5133907;27;20387;-80
2023/01/16 13:56:41;;;;;;;;;;;4.90;99.90;;;;;;5103694;27;20473;-80
2023/01/16 13:59:08;;;;;;;;;;;5.00;99.90;;;;;;5120657;27;19945;-79
2023/01/16 14:01:43;;;;;;;;;;;5.00;99.90;;;;;;5124726;27;19924;-80
2023/01/16 14:04:14;;;;;;;;;;;5.00;99.90;;;;;;5122638;27;20526;-79
2023/01/16 14:06:43;;;;;;;;;;;5.00;99.90;;;;;;5142530;27;19950;-80
2023/01/16 14:09:14;;;;;;;;;;;5.00;99.90;;;;;;5142276;27;19983;-80
2023/01/16 14:12:00;;;;;;;;;;;5.00;99.90;;;;;;5123782;27;19923;-80
2023/01/16 14:17:10;;;;;;;;;;;5.00;99.90;;;;;;5117899;27;19927;-80
2023/01/16 14:19:38;;;;;;;;;;;5.00;99.90;;;;;;5123732;27;19957;-80
2023/01/16 14:24:41;;;;;;;;;;;5.00;99.90;;;;;;5122032;27;19928;-80
2023/01/16 14:27:11;;;;;;;;;;;5.00;99.90;;;;;;5134768;27;20292;-79
2023/01/16 14:29:43;;;;;;;;;;;5.10;99.90;;;;;;5119744;27;19923;-79
2023/01/16 14:32:12;;;;;;;;;;;5.10;99.90;;;;;;5123601;27;19954;-80
2023/01/16 14:34:49;;;;;;;;;;;5.10;99.90;;;;;;5123157;27;20016;-80
2023/01/16 14:37:16;;;;;;;;;;;5.10;99.90;;;;;;5121273;27;19976;-79
2023/01/16 14:39:50;;;;;;;;;;;5.10;99.90;;;;;;5123816;27;20323;-80
2023/01/16 14:56:29;;;;;;;;;;;5.20;99.90;;;;;;5122341;27;19934;-80
2023/01/16 14:59:14;;;;;;;;;;;5.20;99.90;;;;;;5118699;27;19928;-80
2023/01/16 15:04:29;;;;;;;;;;;5.20;99.90;;;;;;5115422;27;20015;-80
2023/01/16 15:07:00;;;;;;;;;;;5.20;99.90;;;;;;5122215;27;20388;-80
2023/01/16 15:09:27;;;;;;;;;;;5.20;99.90;;;;;;5122206;27;19924;-80
2023/01/16 15:12:00;;;;;;;;;;;5.20;99.90;;;;;;5122449;27;20329;-80
2023/01/16 15:14:29;;;;;;;;;;;5.20;99.90;;;;;;5123056;27;19986;-80
2023/01/16 15:22:40;;;;;;;;;;;5.20;99.90;;;;;;5115688;27;19927;-80
2023/01/16 15:25:29;;;;;;;;;;;5.20;99.90;;;;;;5120686;27;19931;-80
2023/01/16 15:28:01;;;;;;;;;;;5.20;99.90;;;;;;5081789;27;20043;-80
2023/01/16 15:30:27;;;;;;;;;;;5.20;99.90;;;;;;5121955;27;19923;-80
2023/01/16 15:32:53;;;;;;;;;;;5.20;99.90;;;;;;5121852;27;19955;-80
2023/01/16 15:35:22;;;;;;;;;;;5.20;99.90;;;;;;5121575;27;19927;-80
2023/01/16 15:37:49;;;;;;;;;;;5.20;99.90;;;;;;5135991;27;19927;-80
2023/01/16 15:40:22;;;;;;;;;;;5.10;99.90;;;;;;5122306;27;20014;-80
2023/01/16 15:49:00;;;;;;;;;;;5.10;99.90;;;;;;5121525;27;19932;-80
2023/01/16 15:51:26;;;;;;;;;;;5.00;99.90;;;;;;5121641;27;20397;-80
2023/01/16 15:53:55;;;;;;;;;;;5.00;99.90;;;;;;5121362;27;20006;-80
2023/01/16 15:56:28;;;;;;;;;;;5.00;99.90;;;;;;5120595;27;20036;-80
2023/01/16 15:58:54;;;;;;;;;;;5.00;99.90;;;;;;5118852;27;19934;-83
2023/01/16 16:01:30;;;;;;;;;;;5.00;99.90;;;;;;5101612;28;20351;-83
2023/01/16 16:03:56;;;;;;;;;;;4.90;99.90;;;;;;5117381;27;19938;-82
2023/01/16 16:06:23;;;;;;;;;;;4.80;99.90;;;;;;5117303;27;19951;-83
2023/01/16 16:08:52;;;;;;;;;;;4.90;99.90;;;;;;5120761;27;19934;-82
2023/01/16 16:17:54;;;;;;;;;;;4.90;99.90;;;;;;5122008;27;19957;-82
2023/01/16 16:19:47;;;;;;;;;;;4.80;99.90;;;;;;5111204;27;19927;-83
2023/01/16 16:25:06;;;;;;;;;;;4.80;99.90;;;;;;5120679;27;19928;-82
2023/01/16 16:27:32;;;;;;;;;;;4.70;99.90;;;;;;5097606;27;19927;-80
2023/01/16 16:29:59;;;;;;;;;;;4.80;99.90;;;;;;5111149;28;20198;-80